Elkhart Lake, Wisconsin
Current Conditions -  °F | °C
As of 3:04 AM on Friday 24 Oct 2014 (Local Time) from KSBM Reporting Station
Haze Haze  
Wind Chill: 10°   Ceiling: 500
Heat Index: 10°   Visibility: 2mi
Dew Point:   Wind: 5mph
Humidity: 93%   Direction: 300°WNW
Pressure: 30.03"   Gusts: NA
Location:  43.83°N, 88.02°W
Report Text: KSBM 240804Z AUTO 30004KT 2SM BR OVC005 10/09 A3003 RMK AO2 CIG 003V008 T01000089 $
Loading
Personal Weather Stations






























Interactive Weather Map
Tropical Storm Tracking
New forecast layout! Learn more

10-Day Weather Forecast

Advertisements
Track Severe Weather on mobile